Time;durP1;ratioP1;P1;durP2;ratioP2;P2;SDS_P1;SDS_P2;PMS_P1;PMS_P2;Temp;Humidity;BMP_temperature;BMP_pressure;BME280_temperature;BME280_humidity;BME280_pressure;Samples;Min_cycle;Max_cycle;Signal;HPM_P1;HPM_P2
2022/09/06 00:01:12;;;;;;;2.87;1.32;;;;;;;12.97;100.00;100314.78;1649554;86;21046;-70
2022/09/06 00:03:41;;;;;;;6.78;1.32;;;;;;;12.97;100.00;100312.02;1658160;85;20916;-71
2022/09/06 00:06:13;;;;;;;1.42;1.15;;;;;;;12.95;100.00;100312.34;1659426;86;21091;-68
2022/09/06 00:08:41;;;;;;;2.30;1.37;;;;;;;12.92;100.00;100314.36;1659790;86;21420;-71
2022/09/06 00:11:10;;;;;;;3.45;1.70;;;;;;;12.88;100.00;100316.94;1659530;86;21157;-69
2022/09/06 00:13:38;;;;;;;1.37;1.05;;;;;;;12.86;100.00;100313.66;1659399;86;20951;-70
2022/09/06 00:16:25;;;;;;;7.33;1.42;;;;;;;12.86;100.00;100317.02;1659523;86;21043;-70
2022/09/06 00:18:53;;;;;;;1.82;1.02;;;;;;;12.83;100.00;100314.30;1659496;86;21033;-71
2022/09/06 00:21:27;;;;;;;1.65;1.20;;;;;;;12.79;100.00;100310.55;1659192;86;20995;-70
2022/09/06 00:23:56;;;;;;;2.12;1.25;;;;;;;12.74;100.00;100308.71;1659455;85;20963;-69
2022/09/06 00:26:23;;;;;;;3.27;1.40;;;;;;;12.69;100.00;100310.25;1659817;86;21055;-70
2022/09/06 00:28:50;;;;;;;2.92;1.52;;;;;;;12.58;100.00;100309.68;1659582;86;20984;-70
2022/09/06 00:31:23;;;;;;;5.22;1.30;;;;;;;12.46;100.00;100310.24;1659622;86;20944;-70
2022/09/06 00:33:51;;;;;;;2.83;1.40;;;;;;;12.39;100.00;100316.77;1660154;86;21480;-70
2022/09/06 00:36:21;;;;;;;1.92;1.12;;;;;;;12.33;100.00;100318.85;1638683;86;21273;-67
2022/09/06 00:38:49;;;;;;;5.47;1.45;;;;;;;12.27;100.00;100318.70;1659785;86;22255;-70
2022/09/06 00:41:19;;;;;;;2.00;1.02;;;;;;;12.21;100.00;100313.05;1659510;86;20976;-69
2022/09/06 00:43:46;;;;;;;2.30;1.35;;;;;;;12.18;100.00;100313.09;1659496;86;21512;-71
2022/09/06 00:46:18;;;;;;;4.22;1.05;;;;;;;12.17;100.00;100311.47;1659631;86;20999;-71
2022/09/06 00:48:44;;;;;;;5.55;1.30;;;;;;;12.20;100.00;100308.67;1659450;86;21779;-68
2022/09/06 00:51:12;;;;;;;1.70;1.12;;;;;;;12.27;100.00;100309.03;1659424;86;20998;-69
2022/09/06 00:53:41;;;;;;;1.75;1.30;;;;;;;12.27;100.00;100309.86;1685764;83;21497;-71
2022/09/06 00:56:08;;;;;;;3.72;1.40;;;;;;;12.23;100.00;100310.22;1693078;84;21529;-71
2022/09/06 00:58:36;;;;;;;3.83;1.60;;;;;;;12.16;100.00;100317.55;1693105;84;20901;-69
2022/09/06 01:01:04;;;;;;;1.92;1.30;;;;;;;12.13;100.00;100312.66;1692961;84;21144;-70
2022/09/06 01:03:31;;;;;;;3.40;1.75;;;;;;;12.12;100.00;100312.97;1686989;83;21049;-71
2022/09/06 01:06:03;;;;;;;3.17;1.30;;;;;;;12.08;100.00;100314.12;1671231;84;21441;-67
2022/09/06 01:08:58;;;;;;;4.15;1.50;;;;;;;12.00;100.00;100314.30;1677127;85;21033;-72
2022/09/06 01:11:54;;;;;;;5.15;1.95;;;;;;;11.96;100.00;100309.13;1683359;85;21485;-69
2022/09/06 01:14:52;;;;;;;2.17;1.22;;;;;;;11.97;100.00;100314.10;1682918;85;21115;-72
2022/09/06 01:17:56;;;;;;;4.03;1.45;;;;;;;11.96;100.00;100313.86;1682731;84;20910;-71
2022/09/06 01:20:37;;;;;;;4.55;1.50;;;;;;;11.93;100.00;100306.45;1682910;85;20927;-71
2022/09/06 01:23:53;;;;;;;4.60;1.50;;;;;;;11.89;100.00;100308.77;1683160;85;20982;-72
2022/09/06 01:26:58;;;;;;;3.98;1.17;;;;;;;11.80;100.00;100304.53;1683110;84;20951;-72
2022/09/06 01:29:50;;;;;;;4.12;1.60;;;;;;;11.71;100.00;100307.19;1682767;85;21436;-72
2022/09/06 01:32:38;;;;;;;1.82;1.35;;;;;;;11.66;100.00;100315.02;1683114;85;21002;-67
2022/09/06 01:35:29;;;;;;;2.95;1.62;;;;;;;11.65;100.00;100316.13;1669910;85;20985;-71
2022/09/06 01:37:56;;;;;;;1.80;1.10;;;;;;;11.53;100.00;100313.09;1683136;85;20978;-72
2022/09/06 01:40:24;;;;;;;2.87;1.12;;;;;;;11.33;100.00;100319.25;1671236;85;21013;-71
2022/09/06 01:42:53;;;;;;;2.95;1.17;;;;;;;11.18;100.00;100319.81;1683368;85;21120;-72
2022/09/06 01:45:24;;;;;;;4.28;1.60;;;;;;;11.18;100.00;100316.23;1682743;84;20933;-71
2022/09/06 01:48:20;;;;;;;5.95;1.40;;;;;;;11.10;100.00;100324.66;1683036;84;20942;-68
2022/09/06 01:51:06;;;;;;;2.37;1.17;;;;;;;11.06;100.00;100329.97;1682892;85;21021;-68
2022/09/06 01:54:04;;;;;;;3.87;1.40;;;;;;;11.08;100.00;100322.21;1683090;84;20976;-72
2022/09/06 01:56:43;;;;;;;4.83;1.67;;;;;;;11.07;100.00;100331.59;1682844;84;21650;-71
2022/09/06 01:59:35;;;;;;;5.00;1.80;;;;;;;11.04;100.00;100330.82;1661120;84;21065;-70
2022/09/06 02:02:40;;;;;;;4.28;1.90;;;;;;;11.00;100.00;100334.50;1682714;84;21583;-71
2022/09/06 02:05:29;;;;;;;2.80;1.82;;;;;;;10.97;100.00;100330.97;1706289;84;20984;-71
2022/09/06 02:08:19;;;;;;;3.87;1.95;;;;;;;11.05;100.00;100339.92;1705865;84;21005;-72
2022/09/06 02:11:02;;;;;;;4.47;1.90;;;;;;;11.07;100.00;100337.11;1705853;83;21115;-71
2022/09/06 02:13:48;;;;;;;3.58;2.10;;;;;;;11.06;100.00;100336.86;1705608;84;20921;-72
2022/09/06 02:16:19;;;;;;;4.85;2.47;;;;;;;11.05;100.00;100337.16;1706517;83;21057;-72
2022/09/06 02:18:53;;;;;;;5.17;2.33;;;;;;;10.95;100.00;100343.11;1706724;82;20997;-67
2022/09/06 02:21:28;;;;;;;3.72;2.45;;;;;;;10.85;100.00;100338.34;1703348;84;20961;-69
2022/09/06 02:23:56;;;;;;;5.65;2.90;;;;;;;10.75;100.00;100339.34;1704013;84;21113;-72
2022/09/06 02:26:26;;;;;;;7.47;3.08;;;;;;;10.70;100.00;100343.80;1683491;84;20972;-69
2022/09/06 02:28:52;;;;;;;7.28;2.70;;;;;;;10.63;100.00;100341.98;1705491;83;20941;-72
2022/09/06 02:31:31;;;;;;;4.92;2.30;;;;;;;10.55;100.00;100340.74;1706167;84;21003;-70
2022/09/06 02:34:00;;;;;;;4.92;3.00;;;;;;;10.52;100.00;100344.10;1684391;84;21001;-69
2022/09/06 02:36:29;;;;;;;7.95;3.30;;;;;;;10.55;100.00;100345.42;1705295;84;22005;-70
2022/09/06 02:38:57;;;;;;;9.80;3.58;;;;;;;10.54;100.00;100347.94;1704956;84;21044;-71
2022/09/06 02:41:24;;;;;;;8.18;3.42;;;;;;;10.47;100.00;100346.35;1683924;84;20985;-72
2022/09/06 02:43:53;;;;;;;5.10;3.45;;;;;;;10.41;100.00;100351.66;1706502;83;21004;-72
2022/09/06 02:46:26;;;;;;;5.20;2.72;;;;;;;10.43;100.00;100352.19;1707306;84;20898;-71
2022/09/06 02:48:53;;;;;;;10.90;4.03;;;;;;;10.51;100.00;100354.05;1682390;83;21165;-71
2022/09/06 02:51:20;;;;;;;6.45;3.33;;;;;;;10.53;100.00;100356.75;1705758;83;21426;-72
2022/09/06 02:53:51;;;;;;;9.45;3.77;;;;;;;10.53;100.00;100353.99;1684582;84;21386;-72
2022/09/06 02:56:20;;;;;;;7.72;3.45;;;;;;;10.53;100.00;100351.23;1705239;84;20934;-72
2022/09/06 02:58:49;;;;;;;6.35;3.37;;;;;;;10.47;100.00;100348.31;1705627;84;21460;-68
2022/09/06 03:01:16;;;;;;;9.23;3.65;;;;;;;10.41;100.00;100347.53;1704998;84;21244;-70
2022/09/06 03:03:46;;;;;;;14.87;4.50;;;;;;;10.42;100.00;100345.60;1706857;83;21047;-72
2022/09/06 03:06:13;;;;;;;6.40;3.92;;;;;;;10.32;100.00;100345.20;1705305;84;20999;-71
2022/09/06 03:08:46;;;;;;;8.43;4.28;;;;;;;10.19;100.00;100343.44;1683497;84;21505;-71
2022/09/06 03:11:14;;;;;;;5.72;3.35;;;;;;;10.16;100.00;100343.22;1707267;84;21537;-70
2022/09/06 03:13:43;;;;;;;6.67;3.58;;;;;;;10.24;100.00;100346.67;1707496;83;21161;-71
2022/09/06 03:16:10;;;;;;;5.67;3.92;;;;;;;10.30;100.00;100351.02;1706244;83;20870;-71
2022/09/06 03:18:45;;;;;;;9.60;4.25;;;;;;;10.35;100.00;100352.28;1707191;84;20957;-73
2022/09/06 03:21:15;;;;;;;5.47;3.47;;;;;;;10.40;100.00;100350.59;1706318;82;20929;-72
2022/09/06 03:23:42;;;;;;;5.67;3.62;;;;;;;10.37;100.00;100357.52;1706658;84;21577;-68
2022/09/06 03:26:11;;;;;;;7.37;3.10;;;;;;;10.37;100.00;100353.39;1706891;83;21225;-71
2022/09/06 03:28:38;;;;;;;6.65;3.47;;;;;;;10.41;100.00;100354.42;1706893;82;21533;-72
2022/09/06 03:31:08;;;;;;;9.58;3.70;;;;;;;10.40;100.00;100358.85;1707251;83;20997;-71
2022/09/06 03:33:35;;;;;;;5.95;3.83;;;;;;;10.31;100.00;100361.45;1707371;82;20989;-72
2022/09/06 03:38:43;;;;;;;9.75;4.08;;;;;;;10.16;100.00;100369.37;1706818;84;20933;-71
2022/09/06 03:41:12;;;;;;;6.33;3.85;;;;;;;10.09;100.00;100367.81;1707357;84;20888;-68
2022/09/06 03:43:39;;;;;;;8.75;4.67;;;;;;;10.04;100.00;100369.81;1683741;84;20993;-72
2022/09/06 03:46:06;;;;;;;6.12;3.50;;;;;;;9.97;100.00;100371.00;1707034;84;20918;-71
2022/09/06 03:48:37;;;;;;;6.12;3.27;;;;;;;9.94;100.00;100373.52;1706963;84;21060;-71
2022/09/06 03:51:04;;;;;;;5.40;3.15;;;;;;;9.94;100.00;100376.28;1707488;83;21548;-71
2022/09/06 03:53:31;;;;;;;7.35;3.90;;;;;;;9.92;100.00;100373.82;1706741;84;21036;-71
2022/09/06 03:55:59;;;;;;;6.97;3.72;;;;;;;9.96;100.00;100377.60;1707070;84;20921;-69
2022/09/06 03:58:31;;;;;;;8.13;3.40;;;;;;;10.05;100.00;100383.28;1707012;84;20917;-72
2022/09/06 04:01:07;;;;;;;6.25;3.98;;;;;;;10.12;100.00;100385.67;1706422;84;20917;-72
2022/09/06 04:03:39;;;;;;;7.53;3.50;;;;;;;10.14;100.00;100387.58;1703605;83;21017;-71
2022/09/06 04:06:06;;;;;;;10.05;3.92;;;;;;;10.17;100.00;100391.66;1707123;83;21426;-70
2022/09/06 04:08:35;;;;;;;8.10;3.52;;;;;;;10.22;100.00;100398.48;1705266;83;21553;-71
2022/09/06 04:11:03;;;;;;;5.40;3.30;;;;;;;10.23;100.00;100399.55;1706631;83;21577;-71
2022/09/06 04:13:30;;;;;;;14.25;4.78;;;;;;;10.22;100.00;100402.06;1705813;83;20933;-72
2022/09/06 04:16:00;;;;;;;8.50;3.70;;;;;;;10.28;100.00;100394.55;1706843;83;21816;-71
2022/09/06 04:18:31;;;;;;;7.45;3.62;;;;;;;10.34;100.00;100399.42;1706903;84;21009;-70
2022/09/06 04:20:58;;;;;;;6.30;3.45;;;;;;;10.38;100.00;100397.72;1704248;84;20957;-69
2022/09/06 04:23:29;;;;;;;5.87;3.25;;;;;;;10.41;100.00;100395.74;1706819;84;21025;-67
2022/09/06 04:25:57;;;;;;;13.25;3.90;;;;;;;10.46;100.00;100402.56;1707406;84;21504;-71
2022/09/06 04:28:25;;;;;;;5.10;3.27;;;;;;;10.52;100.00;100411.61;1706896;84;21255;-71
2022/09/06 04:30:57;;;;;;;8.48;3.87;;;;;;;10.61;100.00;100406.80;1705130;83;21521;-72
2022/09/06 04:33:24;;;;;;;6.72;3.27;;;;;;;10.65;100.00;100405.90;1707575;84;20997;-72
2022/09/06 04:35:56;;;;;;;14.13;3.60;;;;;;;10.70;100.00;100404.45;1706304;84;21096;-71
2022/09/06 04:38:24;;;;;;;8.43;3.40;;;;;;;10.76;100.00;100408.50;1707831;84;20993;-72
2022/09/06 04:40:54;;;;;;;6.70;3.87;;;;;;;10.85;100.00;100403.13;1706010;83;21103;-71
2022/09/06 04:43:23;;;;;;;10.85;3.33;;;;;;;10.89;100.00;100401.39;1705808;83;20993;-72
2022/09/06 04:45:51;;;;;;;9.53;3.55;;;;;;;10.94;100.00;100404.89;1707396;82;20953;-72
2022/09/06 04:48:20;;;;;;;7.33;3.60;;;;;;;11.02;100.00;100410.86;1706089;83;21414;-69
2022/09/06 04:50:48;;;;;;;14.30;4.53;;;;;;;11.08;100.00;100405.50;1707534;84;21000;-71
2022/09/06 04:53:16;;;;;;;10.50;4.33;;;;;;;11.11;100.00;100403.52;1705749;83;21146;-72
2022/09/06 04:55:44;;;;;;;8.08;4.42;;;;;;;11.20;100.00;100405.02;1705406;83;21517;-71
2022/09/06 04:58:17;;;;;;;10.25;4.00;;;;;;;11.26;100.00;100400.24;1706872;83;20945;-72
2022/09/06 05:00:46;;;;;;;10.03;5.47;;;;;;;11.28;100.00;100409.84;1707202;84;21482;-68
2022/09/06 05:03:13;;;;;;;17.87;4.90;;;;;;;11.35;100.00;100408.06;1706909;84;21049;-71
2022/09/06 05:05:41;;;;;;;10.65;5.42;;;;;;;11.45;100.00;100411.19;1679768;83;21069;-69
2022/09/06 05:08:08;;;;;;;7.97;4.58;;;;;;;11.52;100.00;100417.69;1692861;84;20967;-70
2022/09/06 05:10:37;;;;;;;15.00;6.15;;;;;;;11.55;100.00;100412.94;1692924;82;21002;-72
2022/09/06 05:13:05;;;;;;;15.80;5.62;;;;;;;11.62;100.00;100415.30;1693045;84;20901;-69
2022/09/06 05:15:32;;;;;;;15.95;5.55;;;;;;;11.74;100.00;100405.12;1693827;83;20964;-71
2022/09/06 05:18:03;;;;;;;13.18;5.30;;;;;;;11.86;100.00;100409.59;1680670;84;21466;-71
2022/09/06 05:20:31;;;;;;;14.80;5.60;;;;;;;11.99;100.00;100414.05;1693195;84;20919;-71
2022/09/06 05:22:58;;;;;;;16.77;6.50;;;;;;;12.05;100.00;100412.80;1693019;84;20845;-70
2022/09/06 05:25:25;;;;;;;14.80;6.85;;;;;;;12.13;100.00;100416.25;1693082;84;21008;-71
2022/09/06 05:27:54;;;;;;;13.68;5.53;;;;;;;12.19;100.00;100409.23;1681713;84;21485;-69
2022/09/06 05:30:23;;;;;;;13.38;6.60;;;;;;;12.26;100.00;100411.84;1693176;84;21117;-72
2022/09/06 05:33:03;;;;;;;12.40;7.20;;;;;;;12.32;100.00;100407.59;1693016;82;21005;-71
2022/09/06 05:35:32;;;;;;;13.62;6.58;;;;;;;12.37;100.00;100402.75;1692025;84;20929;-71
2022/09/06 05:37:58;;;;;;;13.98;6.05;;;;;;;12.44;100.00;100405.64;1693124;84;21449;-71
2022/09/06 05:40:28;;;;;;;11.60;5.47;;;;;;;12.48;100.00;100396.44;1693016;84;20988;-72
2022/09/06 05:42:55;;;;;;;8.80;4.97;;;;;;;12.53;100.00;100400.47;1693253;84;21321;-72
2022/09/06 05:45:22;;;;;;;15.08;4.83;;;;;;;12.62;100.00;100401.89;1693290;83;20968;-71
2022/09/06 05:47:54;;;;;;;16.40;4.35;;;;;;;12.71;100.00;100401.97;1692811;84;20929;-71
2022/09/06 05:50:21;;;;;;;9.03;4.10;;;;;;;12.80;100.00;100400.66;1693438;84;21465;-73
2022/09/06 05:52:53;;;;;;;9.48;4.72;;;;;;;12.88;100.00;100404.64;1692886;84;20949;-72
2022/09/06 05:55:26;;;;;;;11.75;4.45;;;;;;;12.92;100.00;100409.78;1692928;84;21496;-73
2022/09/06 05:57:54;;;;;;;7.92;4.33;;;;;;;12.93;100.00;100409.23;1693208;84;20933;-72
2022/09/06 06:00:21;;;;;;;9.25;5.05;;;;;;;12.99;100.00;100407.40;1693215;84;20929;-72
2022/09/06 06:02:50;;;;;;;12.45;5.80;;;;;;;13.06;100.00;100410.28;1693139;82;20898;-72
2022/09/06 06:05:19;;;;;;;15.95;5.85;;;;;;;13.08;100.00;100407.47;1700244;83;21005;-73
2022/09/06 06:07:49;;;;;;;12.23;6.10;;;;;;;13.02;100.00;100405.38;1706444;83;20882;-73
2022/09/06 06:10:18;;;;;;;14.95;6.03;;;;;;;13.06;100.00;100409.72;1706343;84;21088;-73
2022/09/06 06:12:46;;;;;;;15.68;7.10;;;;;;;13.15;100.00;100409.20;1706278;82;21001;-73
2022/09/06 06:15:15;;;;;;;15.20;6.30;;;;;;;13.26;100.00;100405.61;1707111;84;21477;-73
2022/09/06 06:17:43;;;;;;;14.98;6.35;;;;;;;13.31;100.00;100414.34;1706693;83;21118;-72
2022/09/06 06:20:12;;;;;;;11.57;5.83;;;;;;;13.39;100.00;100408.03;1706194;83;21269;-72
2022/09/06 06:22:45;;;;;;;15.70;4.97;;;;;;;13.55;100.00;100416.52;1704733;83;21002;-71
2022/09/06 06:25:14;;;;;;;10.08;5.03;;;;;;;13.69;100.00;100418.63;1705980;84;20941;-72
2022/09/06 06:27:42;;;;;;;9.78;4.22;;;;;;;13.72;100.00;100418.55;1706751;83;21490;-69
2022/09/06 06:30:14;;;;;;;10.50;3.77;;;;;;;13.72;99.92;100424.91;1707229;83;20906;-72
2022/09/06 06:32:43;;;;;;;17.37;4.78;;;;;;;13.71;100.00;100416.36;1704962;84;21525;-72
2022/09/06 06:35:10;;;;;;;11.12;4.12;;;;;;;13.86;100.00;100420.66;1683544;84;20945;-71
2022/09/06 06:37:41;;;;;;;11.25;4.08;;;;;;;13.92;98.33;100419.13;1705251;83;20906;-70
2022/09/06 06:40:13;;;;;;;11.18;3.87;;;;;;;14.04;98.03;100417.13;1682889;84;20897;-71
2022/09/06 06:42:43;;;;;;;7.45;3.70;;;;;;;14.07;95.78;100420.63;1705274;83;20985;-68
2022/09/06 06:45:10;;;;;;;9.95;2.92;;;;;;;14.11;95.30;100417.45;1704056;84;21724;-71
2022/09/06 06:47:38;;;;;;;7.70;2.75;;;;;;;14.21;95.43;100417.73;1680870;84;21406;-70
2022/09/06 06:50:08;;;;;;;4.30;2.00;;;;;;;14.32;95.24;100419.61;1705718;84;21070;-67
2022/09/06 06:52:40;;;;;;;6.40;2.50;;;;;;;14.46;92.62;100417.53;1703569;84;21029;-71
2022/09/06 06:55:08;;;;;;;5.65;2.15;;;;;;;14.52;90.26;100421.53;1706717;84;20966;-67
2022/09/06 06:57:37;;;;;;;8.10;2.15;;;;;;;14.57;89.00;100425.50;1683019;84;21045;-69
2022/09/06 07:00:05;;;;;;;7.37;2.47;;;;;;;14.62;89.46;100422.56;1705249;83;21449;-70
2022/09/06 07:02:33;;;;;;;9.90;2.83;;;;;;;14.71;90.87;100416.47;1703481;84;21542;-69
2022/09/06 07:05:03;;;;;;;12.43;3.67;;;;;;;14.83;91.92;100418.61;1706586;84;20936;-71
2022/09/06 07:07:30;;;;;;;8.10;2.62;;;;;;;14.92;92.30;100420.00;1706025;84;20969;-70
2022/09/06 07:10:09;;;;;;;3.80;2.17;;;;;;;15.07;93.05;100423.39;1706228;84;21418;-73
2022/09/06 07:12:40;;;;;;;5.00;2.45;;;;;;;15.16;91.20;100423.39;1707266;84;20937;-69
2022/09/06 07:15:10;;;;;;;4.33;2.27;;;;;;;15.26;90.88;100418.88;1706923;83;20889;-70
2022/09/06 07:17:38;;;;;;;10.78;2.90;;;;;;;15.32;88.81;100418.94;1707348;83;20946;-70
2022/09/06 07:20:13;;;;;;;7.70;2.47;;;;;;;15.39;85.46;100421.77;1707001;84;21048;-69
2022/09/06 07:22:42;;;;;;;6.47;2.10;;;;;;;15.35;83.55;100420.25;1707080;84;21436;-69
2022/09/06 07:25:15;;;;;;;4.83;1.45;;;;;;;15.36;84.09;100421.05;1706770;84;21370;-68
2022/09/06 07:27:45;;;;;;;7.42;2.50;;;;;;;15.40;82.53;100422.85;1684611;84;21568;-72
2022/09/06 07:30:14;;;;;;;5.72;2.27;;;;;;;15.46;80.57;100416.53;1682045;84;21036;-70
2022/09/06 07:32:43;;;;;;;2.37;1.65;;;;;;;15.53;82.77;100421.00;1707402;84;20906;-68
2022/09/06 07:35:12;;;;;;;4.12;2.05;;;;;;;15.65;82.96;100418.09;1706987;82;22128;-69
2022/09/06 07:37:45;;;;;;;9.55;1.62;;;;;;;15.72;79.31;100418.97;1707243;84;21001;-70
2022/09/06 07:40:13;;;;;;;3.77;1.50;;;;;;;15.79;79.11;100415.09;1707651;84;21013;-70
2022/09/06 07:42:41;;;;;;;3.30;1.50;;;;;;;15.83;75.68;100417.47;1705281;84;20917;-71
2022/09/06 07:45:12;;;;;;;3.02;1.55;;;;;;;15.90;77.13;100416.34;1705776;84;20984;-72
2022/09/06 07:47:41;;;;;;;4.30;1.60;;;;;;;16.00;76.10;100418.55;1705282;84;22153;-68
2022/09/06 07:50:08;;;;;;;6.58;1.62;;;;;;;16.02;74.22;100422.61;1706561;84;20927;-66
2022/09/06 07:52:35;;;;;;;3.85;1.60;;;;;;;16.05;73.91;100416.97;1707063;84;21529;-68
2022/09/06 07:55:05;;;;;;;5.50;2.10;;;;;;;16.10;77.32;100415.39;1705905;84;21092;-71
2022/09/06 07:57:37;;;;;;;2.30;1.55;;;;;;;16.20;77.87;100412.79;1707259;84;21532;-70
2022/09/06 08:00:11;;;;;;;7.17;1.45;;;;;;;16.25;74.04;100412.59;1707111;83;21151;-68
2022/09/06 08:02:41;;;;;;;7.08;1.20;;;;;;;16.13;69.67;100412.50;1706628;84;21431;-69
2022/09/06 08:05:09;;;;;;;3.42;1.47;;;;;;;16.11;73.04;100411.45;1702057;84;20962;-68
2022/09/06 08:07:37;;;;;;;1.85;1.10;;;;;;;16.21;72.58;100411.62;1683141;84;20970;-69
2022/09/06 08:10:07;;;;;;;2.25;1.77;;;;;;;16.34;73.59;100411.72;1683099;85;21005;-70
2022/09/06 08:12:37;;;;;;;5.67;3.02;;;;;;;16.40;73.60;100413.13;1683135;85;21827;-71
2022/09/06 08:15:09;;;;;;;4.78;2.47;;;;;;;16.45;70.66;100416.28;1671161;85;20985;-67
2022/09/06 08:17:41;;;;;;;4.62;2.22;;;;;;;16.52;71.60;100418.78;1683282;85;20862;-68
2022/09/06 08:20:12;;;;;;;4.90;1.65;;;;;;;16.48;68.37;100408.67;1683217;83;20898;-68
2022/09/06 08:22:41;;;;;;;2.57;1.67;;;;;;;16.46;71.86;100409.02;1672145;85;20990;-67
2022/09/06 08:25:15;;;;;;;5.45;1.95;;;;;;;16.51;73.63;100414.34;1683157;84;21170;-68
2022/09/06 08:27:47;;;;;;;7.67;2.10;;;;;;;16.57;72.55;100404.41;1682235;84;20953;-68
2022/09/06 08:30:15;;;;;;;3.62;1.50;;;;;;;16.57;68.48;100408.02;1683343;84;20973;-70
2022/09/06 08:32:44;;;;;;;5.03;1.60;;;;;;;16.57;67.62;100407.20;1682728;85;21016;-69
2022/09/06 08:35:14;;;;;;;3.42;1.62;;;;;;;16.64;65.83;100402.73;1683317;84;21799;-70
2022/09/06 08:37:46;;;;;;;7.60;2.55;;;;;;;16.76;65.16;100397.80;1682971;84;21102;-70
2022/09/06 08:40:16;;;;;;;2.47;1.62;;;;;;;16.77;66.51;100404.98;1683100;84;20959;-69
2022/09/06 08:42:44;;;;;;;3.22;1.95;;;;;;;16.67;61.85;100400.66;1683394;84;21005;-70
2022/09/06 08:45:15;;;;;;;5.17;2.27;;;;;;;16.60;63.86;100397.59;1682971;84;20986;-68
2022/09/06 08:47:43;;;;;;;8.70;2.30;;;;;;;16.51;67.90;100394.88;1683274;84;21547;-67
2022/09/06 08:50:10;;;;;;;4.17;2.17;;;;;;;16.32;65.46;100396.77;1683051;84;21143;-69
2022/09/06 08:53:04;;;;;;;4.08;2.17;;;;;;;16.13;65.51;100390.26;1682661;84;20937;-67
2022/09/06 08:56:04;;;;;;;4.40;2.10;;;;;;;16.20;68.09;100390.55;1682960;84;20917;-70
2022/09/06 08:58:54;;;;;;;2.67;1.77;;;;;;;16.47;64.70;100377.27;1682759;84;21070;-68
2022/09/06 09:01:27;;;;;;;3.30;1.65;;;;;;;16.65;62.09;100377.13;1683169;84;21505;-70
2022/09/06 09:04:00;;;;;;;2.95;1.45;;;;;;;16.83;63.86;100383.91;1683232;84;21007;-68
2022/09/06 09:06:29;;;;;;;3.33;1.60;;;;;;;17.00;58.84;100378.75;1677711;83;20962;-68
2022/09/06 09:09:05;;;;;;;1.98;1.35;;;;;;;17.15;60.23;100375.34;1693282;84;20976;-69
2022/09/06 09:11:34;;;;;;;3.65;2.08;;;;;;;17.34;59.35;100373.17;1692984;84;20957;-68
2022/09/06 09:14:22;;;;;;;3.80;1.90;;;;;;;17.51;60.08;100370.75;1692994;84;21024;-69
2022/09/06 09:16:53;;;;;;;2.77;1.47;;;;;;;17.58;57.13;100368.21;1692906;84;21477;-68
2022/09/06 09:19:32;;;;;;;2.65;1.82;;;;;;;17.47;56.30;100367.84;1692807;84;20882;-71
2022/09/06 09:22:08;;;;;;;4.50;1.87;;;;;;;17.42;55.86;100370.85;1690912;82;20945;-68
2022/09/06 09:24:38;;;;;;;2.02;1.40;;;;;;;17.36;55.71;100361.93;1693312;84;21457;-69
2022/09/06 09:27:12;;;;;;;2.60;1.80;;;;;;;17.21;52.65;100362.59;1693031;84;21501;-71
2022/09/06 09:30:00;;;;;;;1.82;1.40;;;;;;;17.10;53.87;100361.64;1693268;84;21169;-65
2022/09/06 09:32:43;;;;;;;5.33;2.17;;;;;;;17.07;56.34;100356.73;1692844;83;20961;-66
2022/09/06 09:36:26;;;;;;;;;;;;;;;;;;;;;
2022/09/06 09:39:19;;;;;;;5.95;2.40;;;;;;;17.25;57.04;100350.98;1662081;84;20889;-69
2022/09/06 09:41:46;;;;;;;4.75;2.10;;;;;;;17.38;59.65;100349.05;1693053;84;21009;-70
2022/09/06 09:44:17;;;;;;;4.40;2.10;;;;;;;17.48;61.40;100355.56;1658280;84;21175;-70
2022/09/06 09:46:51;;;;;;;6.08;2.22;;;;;;;17.57;60.87;100356.02;1693117;84;21133;-67
2022/09/06 09:49:28;;;;;;;2.85;1.85;;;;;;;17.60;59.96;100355.33;1693266;84;21422;-68
2022/09/06 09:52:23;;;;;;;4.45;1.80;;;;;;;17.40;55.57;100353.67;1690901;84;20997;-70
2022/09/06 09:54:52;;;;;;;3.33;1.70;;;;;;;17.19;56.48;100355.98;1689503;84;21426;-70
2022/09/06 09:57:20;;;;;;;5.58;2.77;;;;;;;17.08;56.63;100356.14;1681295;84;22156;-69
2022/09/06 09:59:59;;;;;;;7.70;3.10;;;;;;;16.98;59.25;100358.78;1692987;84;21449;-69
2022/09/06 10:02:34;;;;;;;7.08;3.75;;;;;;;16.91;61.94;100362.95;1693130;84;20953;-67
2022/09/06 10:05:15;;;;;;;6.72;4.17;;;;;;;16.88;61.09;100367.81;1693460;84;20971;-71
2022/09/06 10:07:50;;;;;;;7.22;4.55;;;;;;;16.83;62.68;100363.03;1681231;85;21557;-70
2022/09/06 10:10:44;;;;;;;7.97;4.55;;;;;;;16.72;61.41;100369.63;1682583;85;21148;-69
2022/09/06 10:13:28;;;;;;;12.18;5.78;;;;;;;16.66;63.61;100362.87;1681044;85;21449;-67
2022/09/06 10:15:57;;;;;;;11.57;5.17;;;;;;;16.79;64.05;100364.30;1707945;83;21543;-69
2022/09/06 10:18:35;;;;;;;12.13;5.60;;;;;;;16.83;63.72;100363.03;1681100;84;20918;-70
2022/09/06 10:21:21;;;;;;;10.03;6.12;;;;;;;16.90;62.74;100360.52;1707350;83;21102;-67
2022/09/06 10:24:21;;;;;;;15.55;7.33;;;;;;;16.96;58.11;100359.13;1707156;83;21155;-68
2022/09/06 10:26:58;;;;;;;14.83;7.85;;;;;;;16.89;59.23;100354.70;1684231;85;20905;-68
2022/09/06 10:29:46;;;;;;;13.30;7.22;;;;;;;16.93;62.30;100351.47;1707404;83;21054;-68
2022/09/06 10:32:36;;;;;;;15.85;8.15;;;;;;;17.00;62.08;100350.34;1689784;83;21011;-66
2022/09/06 10:35:30;;;;;;;19.37;9.98;;;;;;;17.00;59.88;100355.91;1707410;83;21590;-71
2022/09/06 10:38:22;;;;;;;18.45;9.90;;;;;;;16.95;59.80;100354.73;1708944;81;21147;-69
2022/09/06 10:41:16;;;;;;;16.97;9.95;;;;;;;16.92;61.43;100349.86;1707334;83;20920;-70
2022/09/06 10:44:22;;;;;;;17.48;10.08;;;;;;;16.95;60.54;100347.78;1701002;83;20990;-69
2022/09/06 10:46:53;;;;;;;23.73;10.80;;;;;;;17.04;61.33;100349.88;1707777;83;20999;-70
2022/09/06 10:49:20;;;;;;;19.20;9.95;;;;;;;17.11;58.47;100355.50;1707609;83;20923;-69
2022/09/06 10:51:54;;;;;;;17.67;9.95;;;;;;;17.04;55.79;100348.48;1684123;85;21024;-67
2022/09/06 10:54:23;;;;;;;20.27;11.93;;;;;;;16.96;56.88;100355.52;1681070;84;20932;-69
2022/09/06 10:57:26;;;;;;;21.75;11.30;;;;;;;16.92;57.51;100348.47;1651592;85;20981;-71
2022/09/06 11:00:10;;;;;;;30.70;17.23;;;;;;;16.98;58.02;100350.44;1686695;83;21010;-71
2022/09/06 11:03:06;;;;;;;35.13;20.92;;;;;;;17.24;57.41;100351.59;1711903;83;20990;-72
2022/09/06 11:05:43;;;;;;;43.08;25.23;;;;;;;17.39;57.72;100347.88;1672906;82;21274;-66
2022/09/06 11:08:22;;;;;;;46.23;25.92;;;;;;;17.59;59.79;100347.53;1661689;85;20997;-68
2022/09/06 11:10:54;;;;;;;42.20;23.65;;;;;;;17.71;58.30;100348.11;1640604;86;20956;-68
2022/09/06 11:13:26;;;;;;;49.65;24.00;;;;;;;17.84;55.68;100353.69;1657731;86;21089;-70
2022/09/06 11:16:10;;;;;;;40.40;23.00;;;;;;;17.78;55.95;100348.10;1661504;86;20993;-68
2022/09/06 11:19:04;;;;;;;47.05;26.35;;;;;;;17.72;56.12;100345.58;1661538;86;21229;-68
2022/09/06 11:21:50;;;;;;;;;;;;;;;17.64;54.80;100348.70;1662626;85;20987;-68
2022/09/06 11:24:49;;;;;;;62.85;33.48;;;;;;;17.64;54.79;100345.91;1661825;86;20087;-70
2022/09/06 11:27:29;;;;;;;75.60;38.45;;;;;;;17.63;55.65;100347.66;1661581;84;21032;-68
2022/09/06 11:30:00;;;;;;;83.60;42.85;;;;;;;17.60;55.10;100348.36;1661430;86;21052;-68
2022/09/06 11:32:35;;;;;;;81.60;44.80;;;;;;;17.64;58.07;100344.52;1638989;86;21062;-67
2022/09/06 11:35:09;;;;;;;96.42;47.43;;;;;;;17.66;57.74;100339.98;1661563;86;20975;-68
2022/09/06 11:37:42;;;;;;;137.52;68.70;;;;;;;17.67;57.85;100355.56;1660250;86;21457;-67
2022/09/06 11:40:22;;;;;;;142.07;74.75;;;;;;;17.55;55.38;100352.77;1661654;86;20964;-69
2022/09/06 11:42:54;;;;;;;136.43;74.67;;;;;;;17.35;55.33;100351.93;1661798;86;20952;-70
2022/09/06 11:45:51;;;;;;;145.50;78.07;;;;;;;17.14;56.38;100347.25;1661795;86;21801;-68
2022/09/06 11:48:35;;;;;;;159.80;80.72;;;;;;;17.01;57.98;100346.95;1661379;84;21000;-71
2022/09/06 11:51:09;;;;;;;153.10;83.27;;;;;;;16.87;59.08;100348.69;1661758;86;21008;-69
2022/09/06 11:53:59;;;;;;;136.70;79.62;;;;;;;16.85;60.50;100344.03;1661733;85;20980;-67